sensor_id;sensor_type;location;lat;lon;timestamp;pressure;altitude;pressure_sealevel;temperature;humidity
58373;BME280;44177;43.356;27.672;2022-11-18T00:00:51;97073.00;;;12.56;54.74
58373;BME280;44177;43.356;27.672;2022-11-18T00:03:17;97060.50;;;12.55;54.38
58373;BME280;44177;43.356;27.672;2022-11-18T00:05:42;97058.53;;;12.56;54.46
58373;BME280;44177;43.356;27.672;2022-11-18T00:08:16;97064.78;;;12.56;54.38
58373;BME280;44177;43.356;27.672;2022-11-18T00:10:41;97062.06;;;12.56;54.47
58373;BME280;44177;43.356;27.672;2022-11-18T00:13:10;97065.97;;;12.55;54.66
58373;BME280;44177;43.356;27.672;2022-11-18T00:16:06;97066.72;;;12.56;54.67
58373;BME280;44177;43.356;27.672;2022-11-18T00:18:32;97076.91;;;12.55;54.63
58373;BME280;44177;43.356;27.672;2022-11-18T00:21:02;97075.72;;;12.56;54.29
58373;BME280;44177;43.356;27.672;2022-11-18T00:23:28;97073.34;;;12.51;54.56
58373;BME280;44177;43.356;27.672;2022-11-18T00:25:54;97080.41;;;12.56;54.35
58373;BME280;44177;43.356;27.672;2022-11-18T00:28:19;97074.94;;;12.56;54.46
58373;BME280;44177;43.356;27.672;2022-11-18T00:30:45;97083.94;;;12.56;54.69
58373;BME280;44177;43.356;27.672;2022-11-18T00:33:10;97090.56;;;12.55;54.71
58373;BME280;44177;43.356;27.672;2022-11-18T00:35:36;97088.63;;;12.56;54.46
58373;BME280;44177;43.356;27.672;2022-11-18T00:38:01;97086.69;;;12.56;54.73
58373;BME280;44177;43.356;27.672;2022-11-18T00:40:27;97083.94;;;12.56;54.44
58373;BME280;44177;43.356;27.672;2022-11-18T00:42:52;97083.13;;;12.56;54.38
58373;BME280;44177;43.356;27.672;2022-11-18T00:45:21;97082.38;;;12.55;54.45
58373;BME280;44177;43.356;27.672;2022-11-18T00:47:47;97081.22;;;12.56;54.57
58373;BME280;44177;43.356;27.672;2022-11-18T00:50:13;97088.63;;;12.56;54.67
58373;BME280;44177;43.356;27.672;2022-11-18T00:52:39;97092.16;;;12.56;54.65
58373;BME280;44177;43.356;27.672;2022-11-18T00:55:05;97085.09;;;12.55;54.55
58373;BME280;44177;43.356;27.672;2022-11-18T00:57:30;97085.50;;;12.57;54.50
58373;BME280;44177;43.356;27.672;2022-11-18T00:59:56;97092.16;;;12.56;54.44
58373;BME280;44177;43.356;27.672;2022-11-18T01:02:21;97096.44;;;12.57;54.57
58373;BME280;44177;43.356;27.672;2022-11-18T01:04:46;97092.91;;;12.57;54.65
58373;BME280;44177;43.356;27.672;2022-11-18T01:07:12;97092.16;;;12.56;54.44
58373;BME280;44177;43.356;27.672;2022-11-18T01:09:37;97094.88;;;12.56;54.77
58373;BME280;44177;43.356;27.672;2022-11-18T01:12:03;97100.34;;;12.53;54.21
58373;BME280;44177;43.356;27.672;2022-11-18T01:14:47;97101.53;;;12.55;54.67
58373;BME280;44177;43.356;27.672;2022-11-18T01:17:13;97101.53;;;12.55;54.45
58373;BME280;44177;43.356;27.672;2022-11-18T01:19:38;97101.53;;;12.55;54.64
58373;BME280;44177;43.356;27.672;2022-11-18T01:22:04;97089.00;;;12.54;54.37
58373;BME280;44177;43.356;27.672;2022-11-18T01:24:31;97097.22;;;12.54;54.66
58373;BME280;44177;43.356;27.672;2022-11-18T01:26:57;97084.34;;;12.55;54.64
58373;BME280;44177;43.356;27.672;2022-11-18T01:29:23;97093.72;;;12.54;54.40
58373;BME280;44177;43.356;27.672;2022-11-18T01:31:48;97089.00;;;12.54;54.66
58373;BME280;44177;43.356;27.672;2022-11-18T01:34:14;97089.00;;;12.54;54.45
58373;BME280;44177;43.356;27.672;2022-11-18T01:36:39;97088.25;;;12.54;54.31
58373;BME280;44177;43.356;27.672;2022-11-18T01:39:04;97086.28;;;12.54;54.56
58373;BME280;44177;43.356;27.672;2022-11-18T01:41:30;97083.53;;;12.54;54.41
58373;BME280;44177;43.356;27.672;2022-11-18T01:43:57;97080.03;;;12.54;54.65
58373;BME280;44177;43.356;27.672;2022-11-18T01:46:24;97078.06;;;12.54;54.39
58373;BME280;44177;43.356;27.672;2022-11-18T01:49:11;97080.81;;;12.54;54.68
58373;BME280;44177;43.356;27.672;2022-11-18T01:51:47;97078.06;;;12.54;54.32
58373;BME280;44177;43.356;27.672;2022-11-18T01:54:19;97076.50;;;12.50;54.48
58373;BME280;44177;43.356;27.672;2022-11-18T01:56:51;97083.53;;;12.54;54.38
58373;BME280;44177;43.356;27.672;2022-11-18T01:59:21;97067.09;;;12.43;54.23
58373;BME280;44177;43.356;27.672;2022-11-18T02:01:48;97087.44;;;12.53;54.54
58373;BME280;44177;43.356;27.672;2022-11-18T02:04:14;97081.19;;;12.53;54.73
58373;BME280;44177;43.356;27.672;2022-11-18T02:06:41;97081.19;;;12.53;54.48
58373;BME280;44177;43.356;27.672;2022-11-18T02:09:08;97081.97;;;12.53;54.42
58373;BME280;44177;43.356;27.672;2022-11-18T02:11:33;97080.41;;;12.52;54.61
58373;BME280;44177;43.356;27.672;2022-11-18T02:14:32;97076.50;;;12.53;54.43
58373;BME280;44177;43.356;27.672;2022-11-18T02:17:07;97076.88;;;12.52;54.66
58373;BME280;44177;43.356;27.672;2022-11-18T02:30:13;97053.81;;;12.45;54.63
58373;BME280;44177;43.356;27.672;2022-11-18T02:35:45;97070.63;;;12.51;54.63
58373;BME280;44177;43.356;27.672;2022-11-18T02:38:30;97073.34;;;12.51;54.67
58373;BME280;44177;43.356;27.672;2022-11-18T02:41:03;97072.59;;;12.51;54.55
58373;BME280;44177;43.356;27.672;2022-11-18T02:43:33;97075.31;;;12.51;54.39
58373;BME280;44177;43.356;27.672;2022-11-18T02:46:05;97062.41;;;12.44;54.40
58373;BME280;44177;43.356;27.672;2022-11-18T02:48:34;97071.81;;;12.50;54.60
58373;BME280;44177;43.356;27.672;2022-11-18T02:51:03;97074.56;;;12.50;54.74
58373;BME280;44177;43.356;27.672;2022-11-18T02:53:31;97079.22;;;12.50;54.46
58373;BME280;44177;43.356;27.672;2022-11-18T02:55:59;97074.56;;;12.50;54.44
58373;BME280;44177;43.356;27.672;2022-11-18T02:58:25;97078.44;;;12.49;54.58
58373;BME280;44177;43.356;27.672;2022-11-18T03:00:55;97078.44;;;12.49;54.44
58373;BME280;44177;43.356;27.672;2022-11-18T03:03:29;97075.72;;;12.49;54.82
58373;BME280;44177;43.356;27.672;2022-11-18T03:08:44;97067.50;;;12.49;54.45
58373;BME280;44177;43.356;27.672;2022-11-18T03:11:22;97075.31;;;12.51;54.40
58373;BME280;44177;43.356;27.672;2022-11-18T03:16:22;97060.88;;;12.50;54.47
58373;BME280;44177;43.356;27.672;2022-11-18T03:19:13;97057.34;;;12.50;54.48
58373;BME280;44177;43.356;27.672;2022-11-18T03:21:49;97057.34;;;12.50;54.63
58373;BME280;44177;43.356;27.672;2022-11-18T03:24:31;97058.50;;;12.45;54.48
58373;BME280;44177;43.356;27.672;2022-11-18T03:27:14;97058.13;;;12.50;54.77
58373;BME280;44177;43.356;27.672;2022-11-18T03:29:48;97053.84;;;12.49;54.34
58373;BME280;44177;43.356;27.672;2022-11-18T03:32:23;97051.88;;;12.50;54.78
58373;BME280;44177;43.356;27.672;2022-11-18T03:34:54;97054.59;;;12.50;54.68
58373;BME280;44177;43.356;27.672;2022-11-18T03:37:24;97054.59;;;12.50;54.63
58373;BME280;44177;43.356;27.672;2022-11-18T03:39:59;97056.56;;;12.49;54.79
58373;BME280;44177;43.356;27.672;2022-11-18T03:42:42;97065.53;;;12.50;54.53
58373;BME280;44177;43.356;27.672;2022-11-18T03:45:20;97058.91;;;12.47;54.54
58373;BME280;44177;43.356;27.672;2022-11-18T03:47:53;97062.03;;;12.49;54.66
58373;BME280;44177;43.356;27.672;2022-11-18T03:50:29;97049.13;;;12.50;54.85
58373;BME280;44177;43.356;27.672;2022-11-18T03:52:57;97054.59;;;12.50;54.68
58373;BME280;44177;43.356;27.672;2022-11-18T03:55:26;97047.19;;;12.50;54.59
58373;BME280;44177;43.356;27.672;2022-11-18T03:58:06;97048.38;;;12.49;54.44
58373;BME280;44177;43.356;27.672;2022-11-18T04:00:41;97067.13;;;12.51;54.50
58373;BME280;44177;43.356;27.672;2022-11-18T04:03:08;97067.88;;;12.51;54.71
58373;BME280;44177;43.356;27.672;2022-11-18T04:05:37;97071.81;;;12.50;54.46
58373;BME280;44177;43.356;27.672;2022-11-18T04:08:07;97066.34;;;12.50;54.44
58373;BME280;44177;43.356;27.672;2022-11-18T04:10:38;97067.13;;;12.51;54.92
58373;BME280;44177;43.356;27.672;2022-11-18T04:13:19;97067.13;;;12.51;54.48
58373;BME280;44177;43.356;27.672;2022-11-18T04:15:45;97067.13;;;12.51;54.73
58373;BME280;44177;43.356;27.672;2022-11-18T04:18:11;97069.09;;;12.50;54.69
58373;BME280;44177;43.356;27.672;2022-11-18T04:20:37;97077.28;;;12.50;54.74
58373;BME280;44177;43.356;27.672;2022-11-18T04:23:03;97078.81;;;12.47;54.73
58373;BME280;44177;43.356;27.672;2022-11-18T04:25:29;97081.97;;;12.50;54.64
58373;BME280;44177;43.356;27.672;2022-11-18T04:27:55;97074.56;;;12.50;54.79
58373;BME280;44177;43.356;27.672;2022-11-18T04:30:20;97074.91;;;12.45;54.66
58373;BME280;44177;43.356;27.672;2022-11-18T04:32:46;97082.75;;;12.50;54.70
58373;BME280;44177;43.356;27.672;2022-11-18T04:35:12;97083.13;;;12.48;54.71
58373;BME280;44177;43.356;27.672;2022-11-18T04:37:37;97081.19;;;12.49;55.01
58373;BME280;44177;43.356;27.672;2022-11-18T04:40:03;97082.75;;;12.50;54.89
58373;BME280;44177;43.356;27.672;2022-11-18T04:42:29;97075.72;;;12.49;54.79
58373;BME280;44177;43.356;27.672;2022-11-18T04:44:55;97078.06;;;12.51;54.52
58373;BME280;44177;43.356;27.672;2022-11-18T04:47:20;97075.72;;;12.49;54.79
58373;BME280;44177;43.356;27.672;2022-11-18T04:49:46;97086.66;;;12.49;54.54
58373;BME280;44177;43.356;27.672;2022-11-18T04:52:11;97083.13;;;12.48;54.95
58373;BME280;44177;43.356;27.672;2022-11-18T04:54:37;97091.31;;;12.48;54.99
58373;BME280;44177;43.356;27.672;2022-11-18T04:57:02;97089.75;;;12.47;55.08
58373;BME280;44177;43.356;27.672;2022-11-18T04:59:28;97087.81;;;12.48;54.95
58373;BME280;44177;43.356;27.672;2022-11-18T05:01:55;97089.00;;;12.47;54.76
58373;BME280;44177;43.356;27.672;2022-11-18T05:04:23;97090.56;;;12.48;54.98
58373;BME280;44177;43.356;27.672;2022-11-18T05:06:49;97098.75;;;12.48;54.95
58373;BME280;44177;43.356;27.672;2022-11-18T05:09:15;97099.53;;;12.48;55.08
58373;BME280;44177;43.356;27.672;2022-11-18T05:11:41;97095.22;;;12.44;54.63
58373;BME280;44177;43.356;27.672;2022-11-18T05:14:26;97099.53;;;12.48;54.76
58373;BME280;44177;43.356;27.672;2022-11-18T05:16:52;97096.03;;;12.48;54.64
58373;BME280;44177;43.356;27.672;2022-11-18T05:19:18;97100.34;;;12.49;54.63
58373;BME280;44177;43.356;27.672;2022-11-18T05:21:43;97097.59;;;12.49;54.58
58373;BME280;44177;43.356;27.672;2022-11-18T05:24:09;97094.88;;;12.49;54.48
58373;BME280;44177;43.356;27.672;2022-11-18T05:26:34;97100.69;;;12.47;54.59
58373;BME280;44177;43.356;27.672;2022-11-18T05:29:00;97105.81;;;12.49;54.81
58373;BME280;44177;43.356;27.672;2022-11-18T05:31:25;97104.63;;;12.50;54.60
58373;BME280;44177;43.356;27.672;2022-11-18T05:33:51;97108.91;;;12.51;54.73
58373;BME280;44177;43.356;27.672;2022-11-18T05:36:18;97105.81;;;12.49;54.74
58373;BME280;44177;43.356;27.672;2022-11-18T05:38:44;97108.16;;;12.51;54.86
58373;BME280;44177;43.356;27.672;2022-11-18T05:41:10;97114.38;;;12.51;54.72
58373;BME280;44177;43.356;27.672;2022-11-18T05:43:55;97117.91;;;12.48;54.77
58373;BME280;44177;43.356;27.672;2022-11-18T05:46:21;97117.91;;;12.52;54.77
58373;BME280;44177;43.356;27.672;2022-11-18T05:48:46;97118.69;;;12.52;54.88
58373;BME280;44177;43.356;27.672;2022-11-18T05:51:11;97114.78;;;12.53;54.91
58373;BME280;44177;43.356;27.672;2022-11-18T05:53:37;97125.72;;;12.53;54.92
58373;BME280;44177;43.356;27.672;2022-11-18T05:56:07;97121.06;;;12.54;54.97
58373;BME280;44177;43.356;27.672;2022-11-18T05:58:35;97115.59;;;12.54;54.90
58373;BME280;44177;43.356;27.672;2022-11-18T06:01:03;97116.38;;;12.54;54.45
58373;BME280;44177;43.356;27.672;2022-11-18T06:03:30;97116.78;;;12.56;54.63
58373;BME280;44177;43.356;27.672;2022-11-18T06:06:01;97121.44;;;12.56;54.98
58373;BME280;44177;43.356;27.672;2022-11-18T06:08:32;97124.97;;;12.56;54.84
58373;BME280;44177;43.356;27.672;2022-11-18T06:11:00;97132.00;;;12.57;54.74
58373;BME280;44177;43.356;27.672;2022-11-18T06:13:30;97131.22;;;12.57;54.75
58373;BME280;44177;43.356;27.672;2022-11-18T06:15:57;97132.00;;;12.57;54.87
58373;BME280;44177;43.356;27.672;2022-11-18T06:18:27;97137.50;;;12.57;55.01
58373;BME280;44177;43.356;27.672;2022-11-18T06:20:57;97133.59;;;12.58;54.86
58373;BME280;44177;43.356;27.672;2022-11-18T06:23:24;97136.31;;;12.58;54.80
58373;BME280;44177;43.356;27.672;2022-11-18T06:25:50;97135.91;;;12.56;54.91
58373;BME280;44177;43.356;27.672;2022-11-18T06:28:17;97139.84;;;12.62;54.68
58373;BME280;44177;43.356;27.672;2022-11-18T06:30:43;97143.75;;;12.61;54.46
58373;BME280;44177;43.356;27.672;2022-11-18T06:33:08;97131.25;;;12.64;54.54
58373;BME280;44177;43.356;27.672;2022-11-18T06:35:34;97136.34;;;12.62;54.83
58373;BME280;44177;43.356;27.672;2022-11-18T06:38:00;97140.63;;;12.63;54.56
58373;BME280;44177;43.356;27.672;2022-11-18T06:40:25;97147.66;;;12.68;54.81
58373;BME280;44177;43.356;27.672;2022-11-18T06:42:51;97143.00;;;12.68;54.51
58373;BME280;44177;43.356;27.672;2022-11-18T06:45:34;97147.66;;;12.68;54.42
58373;BME280;44177;43.356;27.672;2022-11-18T06:48:00;97143.75;;;12.69;54.96
58373;BME280;44177;43.356;27.672;2022-11-18T06:50:26;97139.88;;;12.70;54.60
58373;BME280;44177;43.356;27.672;2022-11-18T06:52:52;97153.16;;;12.71;54.70
58373;BME280;44177;43.356;27.672;2022-11-18T06:55:18;97143.78;;;12.72;54.64
58373;BME280;44177;43.356;27.672;2022-11-18T06:57:43;97134.38;;;12.70;54.30
58373;BME280;44177;43.356;27.672;2022-11-18T07:00:09;97137.94;;;12.74;54.56
58373;BME280;44177;43.356;27.672;2022-11-18T07:02:35;97127.34;;;12.72;54.46
58373;BME280;44177;43.356;27.672;2022-11-18T07:05:01;97130.50;;;12.78;54.19
58373;BME280;44177;43.356;27.672;2022-11-18T07:07:27;97130.50;;;12.74;54.36
58373;BME280;44177;43.356;27.672;2022-11-18T07:09:52;97129.34;;;12.83;54.05
58373;BME280;44177;43.356;27.672;2022-11-18T07:12:18;97121.91;;;12.83;54.02
58373;BME280;44177;43.356;27.672;2022-11-18T07:14:43;97119.16;;;12.83;54.45
58373;BME280;44177;43.356;27.672;2022-11-18T07:17:09;97110.97;;;12.83;54.14
58373;BME280;44177;43.356;27.672;2022-11-18T07:19:34;97113.69;;;12.83;54.16
58373;BME280;44177;43.356;27.672;2022-11-18T07:21:59;97118.00;;;12.84;54.14
58373;BME280;44177;43.356;27.672;2022-11-18T07:24:25;97116.84;;;12.85;53.93
58373;BME280;44177;43.356;27.672;2022-11-18T07:26:52;97119.16;;;12.87;54.22
58373;BME280;44177;43.356;27.672;2022-11-18T07:29:18;97116.06;;;12.88;53.89
58373;BME280;44177;43.356;27.672;2022-11-18T07:31:43;97125.06;;;12.89;53.83
58373;BME280;44177;43.356;27.672;2022-11-18T07:34:09;97113.72;;;12.90;54.13
58373;BME280;44177;43.356;27.672;2022-11-18T07:36:34;97120.38;;;12.93;54.01
58373;BME280;44177;43.356;27.672;2022-11-18T07:39:00;97122.72;;;12.94;54.09
58373;BME280;44177;43.356;27.672;2022-11-18T07:41:28;97114.91;;;12.97;54.12
58373;BME280;44177;43.356;27.672;2022-11-18T07:43:55;97105.53;;;12.98;53.98
58373;BME280;44177;43.356;27.672;2022-11-18T07:46:33;97112.56;;;13.02;53.95
58373;BME280;44177;43.356;27.672;2022-11-18T07:49:02;97108.28;;;13.05;53.88
58373;BME280;44177;43.356;27.672;2022-11-18T07:51:30;97112.97;;;13.08;53.79
58373;BME280;44177;43.356;27.672;2022-11-18T07:53:56;97106.31;;;13.09;53.52
58373;BME280;44177;43.356;27.672;2022-11-18T07:56:22;97100.06;;;13.12;53.46
58373;BME280;44177;43.356;27.672;2022-11-18T07:58:52;97093.41;;;13.13;53.36
58373;BME280;44177;43.356;27.672;2022-11-18T08:01:21;97100.06;;;13.19;53.55
58373;BME280;44177;43.356;27.672;2022-11-18T08:03:47;97103.22;;;13.21;53.05
58373;BME280;44177;43.356;27.672;2022-11-18T08:06:15;97102.41;;;13.24;53.33
58373;BME280;44177;43.356;27.672;2022-11-18T08:08:41;97108.28;;;13.26;53.45
58373;BME280;44177;43.356;27.672;2022-11-18T08:11:10;97117.28;;;13.31;53.20
58373;BME280;44177;43.356;27.672;2022-11-18T08:13:36;97124.72;;;13.34;53.02
58373;BME280;44177;43.356;27.672;2022-11-18T08:16:03;97121.97;;;13.37;52.80
58373;BME280;44177;43.356;27.672;2022-11-18T08:18:30;97114.94;;;13.43;52.94
58373;BME280;44177;43.356;27.672;2022-11-18T08:21:00;97127.47;;;13.48;52.77
58373;BME280;44177;43.356;27.672;2022-11-18T08:23:26;97127.47;;;13.55;52.68
58373;BME280;44177;43.356;27.672;2022-11-18T08:25:51;97121.97;;;13.66;52.29
58373;BME280;44177;43.356;27.672;2022-11-18T08:28:17;97127.06;;;13.89;52.13
58373;BME280;44177;43.356;27.672;2022-11-18T08:30:42;97123.00;;;14.30;50.95
58373;BME280;44177;43.356;27.672;2022-11-18T08:33:08;97113.44;;;14.78;49.88
58373;BME280;44177;43.356;27.672;2022-11-18T08:35:33;97118.25;;;15.20;48.33
58373;BME280;44177;43.356;27.672;2022-11-18T08:37:59;97118.72;;;15.60;47.59
58373;BME280;44177;43.356;27.672;2022-11-18T08:40:25;97118.41;;;15.96;46.77
58373;BME280;44177;43.356;27.672;2022-11-18T08:42:51;97119.56;;;16.33;45.74
58373;BME280;44177;43.356;27.672;2022-11-18T08:45:16;97117.97;;;16.67;45.11
58373;BME280;44177;43.356;27.672;2022-11-18T08:47:42;97120.06;;;16.59;44.87
58373;BME280;44177;43.356;27.672;2022-11-18T08:50:09;97122.28;;;16.68;44.50
58373;BME280;44177;43.356;27.672;2022-11-18T08:52:36;97111.41;;;17.15;43.85
58373;BME280;44177;43.356;27.672;2022-11-18T08:55:02;97096.41;;;17.44;43.15
58373;BME280;44177;43.356;27.672;2022-11-18T08:57:28;97108.03;;;17.79;42.16
58373;BME280;44177;43.356;27.672;2022-11-18T08:59:53;97101.28;;;18.04;41.89
58373;BME280;44177;43.356;27.672;2022-11-18T09:02:21;97102.44;;;18.26;41.29
58373;BME280;44177;43.356;27.672;2022-11-18T09:04:51;97089.91;;;18.42;41.00
58373;BME280;44177;43.356;27.672;2022-11-18T09:07:18;97097.75;;;18.43;40.96
58373;BME280;44177;43.356;27.672;2022-11-18T09:09:44;97097.91;;;18.56;40.75
58373;BME280;44177;43.356;27.672;2022-11-18T09:12:10;97080.19;;;18.54;40.76
58373;BME280;44177;43.356;27.672;2022-11-18T09:14:41;97093.22;;;18.53;40.77
58373;BME280;44177;43.356;27.672;2022-11-18T09:17:07;97090.41;;;18.37;41.17
58373;BME280;44177;43.356;27.672;2022-11-18T09:19:32;97085.78;;;17.90;41.98
58373;BME280;44177;43.356;27.672;2022-11-18T09:21:58;97087.66;;;17.49;42.99
58373;BME280;44177;43.356;27.672;2022-11-18T09:24:23;97082.34;;;17.11;43.82
58373;BME280;44177;43.356;27.672;2022-11-18T09:26:49;97083.53;;;16.82;44.75
58373;BME280;44177;43.356;27.672;2022-11-18T09:29:14;97080.28;;;16.64;45.41
58373;BME280;44177;43.356;27.672;2022-11-18T09:31:40;97080.47;;;16.49;45.63
58373;BME280;44177;43.356;27.672;2022-11-18T09:34:05;97077.78;;;16.42;45.79
58373;BME280;44177;43.356;27.672;2022-11-18T09:36:31;97078.19;;;16.40;46.32
58373;BME280;44177;43.356;27.672;2022-11-18T09:38:58;97069.41;;;16.53;45.68
58373;BME280;44177;43.356;27.672;2022-11-18T09:41:43;97051.00;;;16.73;45.32
58373;BME280;44177;43.356;27.672;2022-11-18T09:47:35;97043.78;;;17.11;44.36
58373;BME280;44177;43.356;27.672;2022-11-18T09:49:38;97038.03;;;17.25;44.31
58373;BME280;44177;43.356;27.672;2022-11-18T09:52:26;97044.84;;;17.41;43.65
58373;BME280;44177;43.356;27.672;2022-11-18T09:54:53;97032.94;;;17.47;43.60
58373;BME280;44177;43.356;27.672;2022-11-18T09:57:20;97035.94;;;17.57;43.47
58373;BME280;44177;43.356;27.672;2022-11-18T09:59:47;97037.38;;;17.65;43.22
58373;BME280;44177;43.356;27.672;2022-11-18T10:04:38;97026.97;;;17.73;43.05
58373;BME280;44177;43.356;27.672;2022-11-18T10:13:43;97017.03;;;17.79;43.05
58373;BME280;44177;43.356;27.672;2022-11-18T10:21:56;97012.31;;;17.56;43.35
58373;BME280;44177;43.356;27.672;2022-11-18T10:24:49;97011.38;;;17.42;43.53
58373;BME280;44177;43.356;27.672;2022-11-18T10:27:16;96997.06;;;17.27;43.67
58373;BME280;44177;43.356;27.672;2022-11-18T10:29:44;97002.94;;;17.05;44.59
58373;BME280;44177;43.356;27.672;2022-11-18T10:32:15;96999.84;;;16.76;45.42
58373;BME280;44177;43.356;27.672;2022-11-18T10:34:53;97000.63;;;16.49;46.18
58373;BME280;44177;43.356;27.672;2022-11-18T10:37:34;96996.22;;;16.28;46.65
58373;BME280;44177;43.356;27.672;2022-11-18T10:40:04;96987.78;;;16.12;47.23
58373;BME280;44177;43.356;27.672;2022-11-18T10:42:40;96985.25;;;15.93;47.76
58373;BME280;44177;43.356;27.672;2022-11-18T10:47:41;96982.00;;;15.68;48.29
58373;BME280;44177;43.356;27.672;2022-11-18T10:50:33;96983.66;;;15.58;48.62
58373;BME280;44177;43.356;27.672;2022-11-18T10:52:59;96991.63;;;15.48;49.12
58373;BME280;44177;43.356;27.672;2022-11-18T10:55:26;96988.94;;;15.41;49.20
58373;BME280;44177;43.356;27.672;2022-11-18T10:57:55;96982.00;;;15.29;49.61
58373;BME280;44177;43.356;27.672;2022-11-18T11:00:45;96986.34;;;15.27;49.79
58373;BME280;44177;43.356;27.672;2022-11-18T11:03:35;96995.00;;;15.22;49.71
58373;BME280;44177;43.356;27.672;2022-11-18T11:06:21;96994.28;;;15.18;49.88
58373;BME280;44177;43.356;27.672;2022-11-18T11:08:53;96993.50;;;15.13;49.78
58373;BME280;44177;43.356;27.672;2022-11-18T11:11:26;96995.88;;;15.11;50.00
58373;BME280;44177;43.356;27.672;2022-11-18T11:16:28;96990.84;;;15.06;50.14
58373;BME280;44177;43.356;27.672;2022-11-18T11:18:59;96991.28;;;15.01;50.90
58373;BME280;44177;43.356;27.672;2022-11-18T11:21:25;96981.09;;;14.98;50.54
58373;BME280;44177;43.356;27.672;2022-11-18T11:23:52;96987.41;;;14.95;51.17
58373;BME280;44177;43.356;27.672;2022-11-18T11:56:17;96926.09;;;14.60;52.10
58373;BME280;44177;43.356;27.672;2022-11-18T12:01:18;96926.50;;;14.58;52.34
58373;BME280;44177;43.356;27.672;2022-11-18T12:03:52;96919.06;;;14.55;51.77
58373;BME280;44177;43.356;27.672;2022-11-18T12:06:23;96914.00;;;14.53;52.43
58373;BME280;44177;43.356;27.672;2022-11-18T12:14:09;96891.25;;;14.53;52.31
58373;BME280;44177;43.356;27.672;2022-11-18T12:16:59;96882.25;;;14.52;52.53
58373;BME280;44177;43.356;27.672;2022-11-18T12:19:26;96881.84;;;14.50;52.18
58373;BME280;44177;43.356;27.672;2022-11-18T12:21:56;96887.72;;;14.52;52.10
58373;BME280;44177;43.356;27.672;2022-11-18T12:29:39;96895.56;;;14.50;52.40
58373;BME280;44177;43.356;27.672;2022-11-18T12:32:40;96902.25;;;14.49;52.66
58373;BME280;44177;43.356;27.672;2022-11-18T12:48:50;96884.31;;;14.37;52.61
58373;BME280;44177;43.356;27.672;2022-11-18T12:53:43;96895.63;;;14.43;53.01
58373;BME280;44177;43.356;27.672;2022-11-18T12:56:22;96892.88;;;14.43;52.81
58373;BME280;44177;43.356;27.672;2022-11-18T12:58:51;96885.84;;;14.42;52.64
58373;BME280;44177;43.356;27.672;2022-11-18T13:01:20;96885.47;;;14.44;52.64
58373;BME280;44177;43.356;27.672;2022-11-18T13:03:46;96875.28;;;14.41;52.61
58373;BME280;44177;43.356;27.672;2022-11-18T13:08:40;96878.41;;;14.43;52.87
58373;BME280;44177;43.356;27.672;2022-11-18T13:11:16;96879.59;;;14.42;52.69
58373;BME280;44177;43.356;27.672;2022-11-18T13:14:01;96883.50;;;14.41;53.02
58373;BME280;44177;43.356;27.672;2022-11-18T13:16:47;96880.78;;;14.37;52.89
58373;BME280;44177;43.356;27.672;2022-11-18T13:19:31;96882.75;;;14.40;53.00
58373;BME280;44177;43.356;27.672;2022-11-18T13:21:58;96879.63;;;14.38;52.83
58373;BME280;44177;43.356;27.672;2022-11-18T13:24:50;96878.06;;;14.37;53.39
58373;BME280;44177;43.356;27.672;2022-11-18T13:30:00;96876.50;;;14.36;53.28
58373;BME280;44177;43.356;27.672;2022-11-18T13:32:28;96892.19;;;14.35;53.22
58373;BME280;44177;43.356;27.672;2022-11-18T13:34:57;96889.06;;;14.33;53.43
58373;BME280;44177;43.356;27.672;2022-11-18T13:37:25;96889.81;;;14.34;53.14
58373;BME280;44177;43.356;27.672;2022-11-18T13:39:52;96883.56;;;14.33;53.43
58373;BME280;44177;43.356;27.672;2022-11-18T13:42:22;96883.97;;;14.32;53.17
58373;BME280;44177;43.356;27.672;2022-11-18T13:44:53;96878.88;;;14.30;53.45
58373;BME280;44177;43.356;27.672;2022-11-18T13:47:26;96882.81;;;14.29;53.74
58373;BME280;44177;43.356;27.672;2022-11-18T13:50:16;96877.72;;;14.28;53.63
58373;BME280;44177;43.356;27.672;2022-11-18T13:55:26;96882.06;;;14.25;53.80
58373;BME280;44177;43.356;27.672;2022-11-18T13:58:05;96885.56;;;14.26;53.70
58373;BME280;44177;43.356;27.672;2022-11-18T14:00:33;96886.00;;;14.20;53.97
58373;BME280;44177;43.356;27.672;2022-11-18T14:03:05;96875.44;;;14.19;54.08
58373;BME280;44177;43.356;27.672;2022-11-18T14:05:40;96883.66;;;14.23;53.73
58373;BME280;44177;43.356;27.672;2022-11-18T14:08:17;96886.00;;;14.20;54.06
58373;BME280;44177;43.356;27.672;2022-11-18T14:10:44;96878.53;;;14.21;54.12
58373;BME280;44177;43.356;27.672;2022-11-18T14:13:27;96877.78;;;14.20;54.10
58373;BME280;44177;43.356;27.672;2022-11-18T14:15:55;96869.59;;;14.17;54.17
58373;BME280;44177;43.356;27.672;2022-11-18T14:18:48;96866.44;;;14.18;54.06
58373;BME280;44177;43.356;27.672;2022-11-18T14:21:26;96853.53;;;14.15;54.40
58373;BME280;44177;43.356;27.672;2022-11-18T14:23:53;96868.00;;;14.16;54.04
58373;BME280;44177;43.356;27.672;2022-11-18T14:26:33;96856.66;;;14.14;54.52
58373;BME280;44177;43.356;27.672;2022-11-18T14:29:00;96843.38;;;14.09;54.17
58373;BME280;44177;43.356;27.672;2022-11-18T14:36:39;96852.00;;;14.11;54.53
58373;BME280;44177;43.356;27.672;2022-11-18T14:39:32;96840.28;;;14.03;54.09
58373;BME280;44177;43.356;27.672;2022-11-18T14:41:58;96842.66;;;14.04;54.23
58373;BME280;44177;43.356;27.672;2022-11-18T14:44:25;96839.88;;;14.08;54.15
58373;BME280;44177;43.356;27.672;2022-11-18T14:46:57;96842.25;;;14.06;54.23
58373;BME280;44177;43.356;27.672;2022-11-18T14:49:25;96840.69;;;14.05;54.39
58373;BME280;44177;43.356;27.672;2022-11-18T14:51:51;96840.28;;;14.03;54.49
58373;BME280;44177;43.356;27.672;2022-11-18T14:54:19;96837.97;;;14.01;54.32
58373;BME280;44177;43.356;27.672;2022-11-18T14:56:46;96827.81;;;13.95;54.31